createdAt,value
2023-02-28T00:00:37.516Z,100479.75
2023-02-28T00:03:04.501Z,100478.84
2023-02-28T00:05:32.829Z,100483.19
2023-02-28T00:07:59.255Z,100489.22
2023-02-28T00:10:29.640Z,100480.63
2023-02-28T00:12:59.823Z,100481.63
2023-02-28T00:15:26.569Z,100482.59
2023-02-28T00:17:53.259Z,100483.69
2023-02-28T00:20:20.569Z,100481.94
2023-02-28T00:22:50.445Z,100488.19
2023-02-28T00:25:20.343Z,100487.34
2023-02-28T00:27:53.990Z,100478.69
2023-02-28T00:30:22.691Z,100478.69
2023-02-28T00:32:49.992Z,100475.34
2023-02-28T00:35:16.713Z,100491.13
2023-02-28T00:37:43.624Z,100482.34
2023-02-28T00:40:12.378Z,100485.00
2023-02-28T00:42:39.603Z,100491.97
2023-02-28T00:45:06.917Z,100485.88
2023-02-28T00:47:33.360Z,100485.88
2023-02-28T00:50:01.408Z,100484.09
2023-02-28T00:52:27.947Z,100491.91
2023-02-28T00:54:55.180Z,100491.84
2023-02-28T00:57:21.826Z,100488.41
2023-02-28T00:59:48.541Z,100479.69
2023-02-28T01:02:15.148Z,100484.94
2023-02-28T01:04:41.599Z,100486.81
2023-02-28T01:07:08.946Z,100485.13
2023-02-28T01:09:35.389Z,100482.56
2023-02-28T01:12:01.900Z,100490.44
2023-02-28T01:14:28.289Z,100494.78
2023-02-28T01:16:55.257Z,100492.28
2023-02-28T01:19:21.645Z,100489.63
2023-02-28T01:21:48.254Z,100488.81
2023-02-28T01:24:14.853Z,100492.28
2023-02-28T01:26:41.591Z,100486.06
2023-02-28T01:29:08.208Z,100491.25
2023-02-28T01:31:35.301Z,100494.81
2023-02-28T01:34:02.338Z,100486.09
2023-02-28T01:36:30.627Z,100483.50
2023-02-28T01:38:57.736Z,100481.84
2023-02-28T01:41:29.677Z,100481.88
2023-02-28T01:44:00.597Z,100474.13
2023-02-28T01:46:27.156Z,100472.53
2023-02-28T01:49:17.328Z,100469.09
2023-02-28T01:51:52.103Z,100476.13
2023-02-28T01:54:33.119Z,100470.94
2023-02-28T01:57:22.482Z,100472.69
2023-02-28T01:59:55.632Z,100465.66
2023-02-28T02:02:24.588Z,100471.75
2023-02-28T02:05:05.889Z,100465.59
2023-02-28T02:07:38.827Z,100466.41
2023-02-28T02:10:15.618Z,100465.50
2023-02-28T02:13:06.612Z,100469.88
2023-02-28T02:16:05.516Z,100464.69
2023-02-28T02:19:09.589Z,100458.59
2023-02-28T02:21:51.142Z,100463.81
2023-02-28T02:24:41.146Z,100464.69
2023-02-28T02:27:29.591Z,100457.63
2023-02-28T02:30:29.314Z,100455.81
2023-02-28T02:33:07.571Z,100460.19
2023-02-28T02:35:41.314Z,100466.31
2023-02-28T02:38:27.476Z,100459.31
2023-02-28T02:41:16.813Z,100449.66
2023-02-28T02:43:43.528Z,100454.00
2023-02-28T02:46:20.598Z,100452.34
2023-02-28T02:48:48.948Z,100446.28
2023-02-28T02:51:18.473Z,100446.34
2023-02-28T02:53:54.589Z,100449.84
2023-02-28T02:56:26.716Z,100450.66
2023-02-28T02:58:58.952Z,100444.50
2023-02-28T03:01:30.633Z,100452.34
2023-02-28T03:04:20.059Z,100458.41
2023-02-28T03:06:46.512Z,100457.53
2023-02-28T03:09:13.601Z,100441.75
2023-02-28T03:11:41.749Z,100448.69
2023-02-28T03:14:16.441Z,100449.53
2023-02-28T03:17:11.231Z,100440.66
2023-02-28T03:20:10.026Z,100449.41
2023-02-28T03:22:53.276Z,100441.56
2023-02-28T03:25:22.662Z,100440.63
2023-02-28T03:27:49.404Z,100444.09
2023-02-28T03:30:35.161Z,100449.16
2023-02-28T03:33:19.687Z,100447.22
2023-02-28T03:35:54.455Z,100441.69
2023-02-28T03:38:36.947Z,100441.13
2023-02-28T03:41:13.247Z,100442.66
2023-02-28T03:43:44.013Z,100435.25
2023-02-28T03:46:15.809Z,100434.13
2023-02-28T03:48:46.810Z,100429.78
2023-02-28T03:51:19.082Z,100433.81
2023-02-28T03:53:52.388Z,100435.91
2023-02-28T03:56:38.288Z,100440.63
2023-02-28T03:59:31.561Z,100440.38
2023-02-28T04:01:59.729Z,100431.72
2023-02-28T04:04:26.775Z,100436.09
2023-02-28T04:07:02.566Z,100438.59
2023-02-28T04:09:29.293Z,100435.16
2023-02-28T04:11:58.984Z,100439.59
2023-02-28T04:14:25.441Z,100440.66
2023-02-28T04:16:53.421Z,100437.16
2023-02-28T04:19:20.383Z,100438.19
2023-02-28T04:21:52.829Z,100445.06
2023-02-28T04:24:22.819Z,100436.53
2023-02-28T04:26:52.454Z,100436.53
2023-02-28T04:29:30.295Z,100440.13
2023-02-28T04:32:01.075Z,100441.13
2023-02-28T04:34:29.576Z,100443.78
2023-02-28T04:37:11.990Z,100447.34
2023-02-28T04:39:39.614Z,100450.00
2023-02-28T04:42:06.591Z,100449.94
2023-02-28T04:44:33.042Z,100443.78
2023-02-28T04:46:59.872Z,100446.34
2023-02-28T04:49:26.452Z,100443.91
2023-02-28T04:51:53.819Z,100443.97
2023-02-28T04:54:21.325Z,100445.78
2023-02-28T04:56:50.576Z,100441.53
2023-02-28T04:59:17.263Z,100444.19
2023-02-28T05:01:48.378Z,100448.53
2023-02-28T05:04:15.214Z,100444.09
2023-02-28T05:06:41.845Z,100445.91
2023-02-28T05:09:08.457Z,100447.56
2023-02-28T05:11:36.157Z,100454.69
2023-02-28T05:14:12.018Z,100452.97
2023-02-28T05:16:38.905Z,100448.53
2023-02-28T05:19:05.330Z,100445.22
2023-02-28T05:21:34.027Z,100446.88
2023-02-28T05:24:06.949Z,100452.13
2023-02-28T05:26:42.305Z,100458.97
2023-02-28T05:29:09.805Z,100457.38
2023-02-28T05:31:37.111Z,100455.78
2023-02-28T05:34:05.119Z,100455.94
2023-02-28T05:36:32.504Z,100464.63
2023-02-28T05:38:59.376Z,100460.38
2023-02-28T05:41:27.191Z,100462.22
2023-02-28T05:43:53.944Z,100463.22
2023-02-28T05:46:20.428Z,100461.59
2023-02-28T05:48:48.799Z,100462.53
2023-02-28T05:51:16.547Z,100462.59
2023-02-28T05:53:43.034Z,100466.19
2023-02-28T05:56:09.868Z,100465.34
2023-02-28T05:58:36.290Z,100461.03
2023-02-28T06:01:22.170Z,100461.94
2023-02-28T06:03:48.743Z,100467.19
2023-02-28T06:06:15.237Z,100466.28
2023-02-28T06:08:41.689Z,100468.97
2023-02-28T06:11:08.440Z,100464.56
2023-02-28T06:13:34.896Z,100461.13
2023-02-28T06:16:02.289Z,100473.31
2023-02-28T06:18:28.741Z,100474.28
2023-02-28T06:20:55.780Z,100471.66
2023-02-28T06:23:23.155Z,100473.44
2023-02-28T06:25:50.370Z,100472.50
2023-02-28T06:28:17.412Z,100489.00
2023-02-28T06:30:46.357Z,100488.16
2023-02-28T06:33:13.079Z,100482.91
2023-02-28T06:35:39.983Z,100478.53
2023-02-28T06:38:06.577Z,100484.63
2023-02-28T06:40:35.843Z,100479.34
2023-02-28T06:43:03.166Z,100493.34
2023-02-28T06:45:29.934Z,100492.47
2023-02-28T06:47:56.729Z,100493.25
2023-02-28T06:50:23.211Z,100494.16
2023-02-28T06:52:49.620Z,100501.06
2023-02-28T06:55:16.479Z,100506.38
2023-02-28T06:57:42.879Z,100504.66
2023-02-28T07:00:11.088Z,100498.47
2023-02-28T07:02:38.559Z,100517.66
2023-02-28T07:05:06.623Z,100516.66
2023-02-28T07:07:33.576Z,100518.25
2023-02-28T07:10:00.372Z,100505.84
2023-02-28T07:12:27.100Z,100515.38
2023-02-28T07:14:53.649Z,100516.78
2023-02-28T07:17:20.087Z,100516.44
2023-02-28T07:19:46.576Z,100507.66
2023-02-28T07:22:14.900Z,100515.97
2023-02-28T07:24:42.471Z,100504.50
2023-02-28T07:27:09.050Z,100512.13
2023-02-28T07:29:35.774Z,100516.00
2023-02-28T07:32:02.397Z,100508.91
2023-02-28T07:34:28.822Z,100508.56
2023-02-28T07:36:55.847Z,100503.81
2023-02-28T07:39:23.350Z,100503.28
2023-02-28T07:41:50.019Z,100510.34
2023-02-28T07:44:17.360Z,100501.63
2023-02-28T07:46:43.851Z,100501.44
2023-02-28T07:49:10.458Z,100508.22
2023-02-28T07:51:36.891Z,100512.31
2023-02-28T07:54:04.256Z,100515.59
2023-02-28T07:56:31.534Z,100517.97
2023-02-28T07:58:58.453Z,100510.69
2023-02-28T08:01:25.080Z,100506.75
2023-02-28T08:03:51.649Z,100506.41
2023-02-28T08:06:23.214Z,100504.22
2023-02-28T08:08:50.351Z,100505.94
2023-02-28T08:11:17.974Z,100502.25
2023-02-28T08:13:45.907Z,100510.00
2023-02-28T08:16:22.761Z,100506.22
2023-02-28T08:18:51.438Z,100499.81
2023-02-28T08:21:19.056Z,100498.75
2023-02-28T08:23:49.456Z,100490.56
2023-02-28T08:26:17.517Z,100499.94
2023-02-28T08:28:45.286Z,100490.75
2023-02-28T08:31:14.514Z,100488.16
2023-02-28T08:33:42.113Z,100479.97
2023-02-28T08:36:09.900Z,100479.91
2023-02-28T08:38:37.582Z,100488.44
2023-02-28T08:41:08.124Z,100479.47
2023-02-28T08:43:35.959Z,100474.91
2023-02-28T08:46:03.024Z,100479.97
2023-02-28T08:48:31.264Z,100480.81
2023-02-28T08:51:07.612Z,100474.50
2023-02-28T08:53:35.120Z,100478.59
2023-02-28T08:56:12.963Z,100485.66
2023-02-28T08:58:40.332Z,100482.63
2023-02-28T09:01:19.155Z,100487.41
2023-02-28T09:03:47.092Z,100490.19
2023-02-28T09:06:15.234Z,100480.56
2023-02-28T09:08:42.396Z,100481.41
2023-02-28T09:11:09.707Z,100483.75
2023-02-28T09:13:37.185Z,100480.09
2023-02-28T09:16:05.626Z,100479.78
2023-02-28T09:18:33.298Z,100477.75
2023-02-28T09:20:59.804Z,100480.03
2023-02-28T09:23:26.193Z,100480.66
2023-02-28T09:25:55.375Z,100474.28
2023-02-28T09:28:22.791Z,100474.06
2023-02-28T09:30:52.957Z,100481.84
2023-02-28T09:33:22.319Z,100478.72
2023-02-28T09:35:50.285Z,100478.63
2023-02-28T09:38:18.171Z,100481.00
2023-02-28T09:40:58.899Z,100472.06
2023-02-28T09:43:29.992Z,100464.69
2023-02-28T09:46:03.397Z,100465.13
2023-02-28T09:48:38.030Z,100472.56
2023-02-28T09:51:36.907Z,100475.91
2023-02-28T09:54:03.881Z,100461.78
2023-02-28T09:56:40.538Z,100466.53
2023-02-28T09:59:29.822Z,100467.63
2023-02-28T10:02:11.095Z,100469.25
2023-02-28T10:04:40.527Z,100468.78
2023-02-28T10:07:38.045Z,100468.06
2023-02-28T10:10:18.914Z,100468.91
2023-02-28T10:12:47.442Z,100471.38
2023-02-28T10:15:16.278Z,100459.16
2023-02-28T10:17:55.292Z,100463.78
2023-02-28T10:20:31.840Z,100462.38
2023-02-28T10:23:08.497Z,100455.13
2023-02-28T10:25:37.956Z,100454.88
2023-02-28T10:28:13.949Z,100456.34
2023-02-28T10:30:46.324Z,100451.03
2023-02-28T10:33:36.743Z,100450.94
2023-02-28T10:36:05.037Z,100451.38
2023-02-28T10:38:37.339Z,100457.34
2023-02-28T10:41:08.529Z,100443.16
2023-02-28T10:43:38.721Z,100449.44
2023-02-28T10:46:24.075Z,100441.28
2023-02-28T10:49:04.767Z,100441.91
2023-02-28T10:51:41.908Z,100439.81
2023-02-28T10:54:36.837Z,100435.38
2023-02-28T10:57:21.346Z,100441.22
2023-02-28T10:59:52.511Z,100444.59
2023-02-28T11:02:38.345Z,100454.50
2023-02-28T11:05:24.574Z,100432.38
2023-02-28T11:07:56.209Z,100429.25
2023-02-28T11:10:27.122Z,100417.44
2023-02-28T11:13:00.565Z,100423.34
2023-02-28T11:15:31.009Z,100431.59
2023-02-28T11:17:59.622Z,100426.59
2023-02-28T11:20:29.495Z,100433.94
2023-02-28T11:22:58.500Z,100429.53
2023-02-28T11:25:27.637Z,100429.66
2023-02-28T11:27:57.819Z,100423.94
2023-02-28T11:30:32.409Z,100425.63
2023-02-28T11:32:59.663Z,100434.00
2023-02-28T11:35:39.506Z,100417.63
2023-02-28T11:38:13.700Z,100416.34
2023-02-28T11:40:50.463Z,100425.69
2023-02-28T11:43:35.472Z,100421.78
2023-02-28T11:46:21.191Z,100422.84
2023-02-28T11:49:21.681Z,100418.72
2023-02-28T11:51:55.067Z,100415.69
2023-02-28T11:54:49.446Z,100423.59
2023-02-28T11:57:28.147Z,100430.75
2023-02-28T11:59:54.474Z,100434.03
2023-02-28T12:02:50.458Z,100421.00
2023-02-28T12:05:49.399Z,100417.56
2023-02-28T12:08:48.693Z,100415.63
2023-02-28T12:11:23.854Z,100410.47
2023-02-28T12:13:53.708Z,100417.56
2023-02-28T12:16:42.176Z,100410.19
2023-02-28T12:19:29.554Z,100410.69
2023-02-28T12:22:05.178Z,100407.53
2023-02-28T12:24:49.894Z,100404.56
2023-02-28T12:27:19.991Z,100407.22
2023-02-28T12:29:59.154Z,100404.28
2023-02-28T12:32:35.020Z,100396.41
2023-02-28T12:35:10.690Z,100391.72
2023-02-28T12:37:47.055Z,100397.81
2023-02-28T12:40:20.227Z,100396.69
2023-02-28T12:42:52.594Z,100387.09
2023-02-28T12:45:25.254Z,100389.31
2023-02-28T12:48:02.103Z,100389.59
2023-02-28T12:50:31.575Z,100388.22
2023-02-28T12:53:04.370Z,100389.44
2023-02-28T12:55:47.502Z,100379.41
2023-02-28T12:58:36.295Z,100370.34
2023-02-28T13:01:29.258Z,100378.22
2023-02-28T13:04:31.513Z,100382.59
2023-02-28T13:07:01.176Z,100379.44
2023-02-28T13:09:30.377Z,100378.22
2023-02-28T13:11:58.887Z,100375.41
2023-02-28T13:14:31.297Z,100369.06
2023-02-28T13:17:11.462Z,100363.66
2023-02-28T13:19:41.994Z,100362.88
2023-02-28T13:22:36.560Z,100358.50
2023-02-28T13:25:03.352Z,100360.31
2023-02-28T13:27:41.621Z,100359.72
2023-02-28T13:30:45.960Z,100364.66
2023-02-28T13:33:22.623Z,100365.09
2023-02-28T13:35:49.618Z,100366.97
2023-02-28T13:38:34.336Z,100362.84
2023-02-28T13:41:32.144Z,100371.03
2023-02-28T13:44:19.090Z,100366.66
2023-02-28T13:46:48.574Z,100351.19
2023-02-28T13:49:24.535Z,100360.88
2023-02-28T13:51:53.966Z,100352.38
2023-02-28T13:54:31.689Z,100355.88
2023-02-28T13:57:24.817Z,100357.59
2023-02-28T14:00:13.239Z,100359.97
2023-02-28T14:03:07.379Z,100348.78
2023-02-28T14:05:35.331Z,100352.78
2023-02-28T14:08:17.937Z,100342.38
2023-02-28T14:10:50.214Z,100336.59
2023-02-28T14:13:19.771Z,100336.69
2023-02-28T14:15:56.496Z,100333.16
2023-02-28T14:18:30.629Z,100331.59
2023-02-28T14:21:04.771Z,100321.81
2023-02-28T14:23:40.176Z,100322.59
2023-02-28T14:26:23.146Z,100324.09
2023-02-28T14:29:10.925Z,100320.91
2023-02-28T14:31:49.502Z,100319.44
2023-02-28T14:34:54.972Z,100328.09
2023-02-28T14:37:29.047Z,100322.31
2023-02-28T14:39:57.161Z,100315.72
2023-02-28T14:42:35.263Z,100325.88
2023-02-28T14:45:03.305Z,100319.25
2023-02-28T14:47:36.037Z,100318.31
2023-02-28T14:50:04.980Z,100312.91
2023-02-28T14:52:33.812Z,100316.75
2023-02-28T14:55:04.503Z,100325.34
2023-02-28T14:57:36.540Z,100317.59
2023-02-28T15:00:12.509Z,100308.22
2023-02-28T15:02:40.799Z,100314.22
2023-02-28T15:05:13.329Z,100309.84
2023-02-28T15:07:40.638Z,100317.84
2023-02-28T15:10:10.532Z,100318.53
2023-02-28T15:12:37.898Z,100305.63
2023-02-28T15:15:04.963Z,100304.78
2023-02-28T15:17:31.736Z,100307.13
2023-02-28T15:19:58.586Z,100312.75
2023-02-28T15:22:35.509Z,100296.47
2023-02-28T15:25:05.138Z,100311.50
2023-02-28T15:27:34.647Z,100305.88
2023-02-28T15:30:08.296Z,100301.63
2023-02-28T15:32:39.677Z,100301.56
2023-02-28T15:35:30.002Z,100311.09
2023-02-28T15:38:02.663Z,100304.63
2023-02-28T15:40:31.975Z,100310.75
2023-02-28T15:43:15.387Z,100311.03
2023-02-28T15:45:54.029Z,100310.25
2023-02-28T15:48:25.612Z,100309.47
2023-02-28T15:50:57.850Z,100307.50
2023-02-28T15:53:29.505Z,100297.69
2023-02-28T15:56:01.386Z,100301.53
2023-02-28T15:58:28.585Z,100294.00
2023-02-28T16:01:06.076Z,100301.59
2023-02-28T16:03:43.042Z,100303.16
2023-02-28T16:06:27.430Z,100299.41
2023-02-28T16:08:54.495Z,100304.47
2023-02-28T16:11:24.124Z,100302.69
2023-02-28T16:13:52.485Z,100294.19
2023-02-28T16:16:27.090Z,100293.56
2023-02-28T16:18:54.722Z,100298.16
2023-02-28T16:21:21.513Z,100317.63
2023-02-28T16:23:48.481Z,100305.81
2023-02-28T16:26:25.313Z,100310.44
2023-02-28T16:28:52.500Z,100311.69
2023-02-28T16:31:19.498Z,100307.13
2023-02-28T16:33:47.251Z,100306.72
2023-02-28T16:36:16.756Z,100317.44
2023-02-28T16:38:43.471Z,100316.09
2023-02-28T16:41:19.704Z,100320.56
2023-02-28T16:43:49.411Z,100317.72
2023-02-28T16:46:17.843Z,100330.44
2023-02-28T16:48:46.189Z,100329.66
2023-02-28T16:51:14.896Z,100327.94
2023-02-28T16:53:41.559Z,100341.47
2023-02-28T16:56:17.356Z,100336.19
2023-02-28T16:58:44.451Z,100348.59
2023-02-28T17:01:11.103Z,100352.38
2023-02-28T17:03:38.306Z,100347.53
2023-02-28T17:06:05.758Z,100351.00
2023-02-28T17:08:33.253Z,100354.38
2023-02-28T17:11:01.078Z,100362.22
2023-02-28T17:13:27.721Z,100367.41
2023-02-28T17:15:54.418Z,100376.19
2023-02-28T17:18:22.274Z,100379.41
2023-02-28T17:20:49.384Z,100385.53
2023-02-28T17:23:17.107Z,100382.06
2023-02-28T17:25:55.711Z,100382.59
2023-02-28T17:28:24.523Z,100384.97
2023-02-28T17:30:50.994Z,100386.41
2023-02-28T17:33:17.638Z,100395.88
2023-02-28T17:35:44.035Z,100393.59
2023-02-28T17:38:20.945Z,100403.75
2023-02-28T17:40:47.418Z,100400.50
2023-02-28T17:43:14.040Z,100408.94
2023-02-28T17:45:40.572Z,100413.78
2023-02-28T17:48:07.171Z,100416.75
2023-02-28T17:50:33.958Z,100417.06
2023-02-28T17:53:00.361Z,100414.78
2023-02-28T17:55:27.475Z,100414.16
2023-02-28T17:57:53.896Z,100415.19
2023-02-28T18:00:20.905Z,100412.75
2023-02-28T18:02:47.369Z,100419.09
2023-02-28T18:05:13.949Z,100419.34
2023-02-28T18:07:40.733Z,100418.72
2023-02-28T18:10:13.900Z,100420.63
2023-02-28T18:12:40.272Z,100404.06
2023-02-28T18:15:07.149Z,100412.06
2023-02-28T18:17:33.567Z,100418.59
2023-02-28T18:20:00.850Z,100418.84
2023-02-28T18:22:27.218Z,100422.56
2023-02-28T18:24:53.682Z,100426.28
2023-02-28T18:27:20.112Z,100426.53
2023-02-28T18:29:46.786Z,100428.38
2023-02-28T18:32:13.323Z,100431.97
2023-02-28T18:34:41.280Z,100431.25
2023-02-28T18:37:07.707Z,100419.19
2023-02-28T18:39:34.188Z,100424.41
2023-02-28T18:42:01.211Z,100420.91
2023-02-28T18:44:27.598Z,100427.09
2023-02-28T18:46:54.312Z,100431.56
2023-02-28T18:49:20.770Z,100434.31
2023-02-28T18:51:48.301Z,100436.00
2023-02-28T18:54:16.460Z,100433.44
2023-02-28T18:56:44.094Z,100442.94
2023-02-28T18:59:11.639Z,100443.19
2023-02-28T19:01:38.653Z,100446.81
2023-02-28T19:04:05.433Z,100447.03
2023-02-28T19:06:33.254Z,100444.56
2023-02-28T19:09:02.548Z,100449.72
2023-02-28T19:11:29.409Z,100457.72
2023-02-28T19:13:56.481Z,100457.06
2023-02-28T19:16:23.614Z,100463.38
2023-02-28T19:18:50.098Z,100465.22
2023-02-28T19:21:19.220Z,100461.00
2023-02-28T19:23:45.768Z,100465.34
2023-02-28T19:26:15.908Z,100464.34
2023-02-28T19:28:42.862Z,100470.53
2023-02-28T19:31:17.696Z,100468.25
2023-02-28T19:33:45.143Z,100473.78
2023-02-28T19:36:16.044Z,100472.19
2023-02-28T19:38:44.564Z,100473.84
2023-02-28T19:41:13.441Z,100468.56
2023-02-28T19:43:40.443Z,100475.69
2023-02-28T19:46:09.185Z,100471.44
2023-02-28T19:48:35.918Z,100465.38
2023-02-28T19:51:09.317Z,100469.78
2023-02-28T19:53:37.651Z,100463.63
2023-02-28T19:56:04.973Z,100472.56
2023-02-28T19:58:33.150Z,100470.78
2023-02-28T20:01:07.183Z,100469.78
2023-02-28T20:03:33.623Z,100469.84
2023-02-28T20:06:02.833Z,100469.81
2023-02-28T20:08:29.602Z,100469.00
2023-02-28T20:10:56.192Z,100469.09
2023-02-28T20:13:28.007Z,100475.31
2023-02-28T20:15:54.920Z,100472.69
2023-02-28T20:18:21.334Z,100466.66
2023-02-28T20:20:47.921Z,100467.69
2023-02-28T20:23:14.306Z,100455.53
2023-02-28T20:25:41.199Z,100460.91
2023-02-28T20:28:07.614Z,100467.22
2023-02-28T20:30:34.596Z,100463.00
2023-02-28T20:33:01.155Z,100470.94
2023-02-28T20:35:27.696Z,100468.25
2023-02-28T20:37:54.260Z,100466.47
2023-02-28T20:40:20.761Z,100455.81
2023-02-28T20:42:47.293Z,100454.13
2023-02-28T20:45:14.113Z,100454.22
2023-02-28T20:47:42.559Z,100463.84
2023-02-28T20:50:10.366Z,100458.69
2023-02-28T20:52:37.219Z,100468.25
2023-02-28T20:55:06.744Z,100459.41
2023-02-28T20:57:33.225Z,100459.47
2023-02-28T20:59:59.632Z,100462.13
2023-02-28T21:02:26.591Z,100459.59
2023-02-28T21:04:53.054Z,100456.09
2023-02-28T21:07:19.700Z,100448.38
2023-02-28T21:09:46.129Z,100459.81
2023-02-28T21:12:12.529Z,100459.78
2023-02-28T21:14:40.039Z,100459.94
2023-02-28T21:17:09.008Z,100462.69
2023-02-28T21:19:35.508Z,100467.22
2023-02-28T21:22:02.063Z,100461.09
2023-02-28T21:24:28.719Z,100467.38
2023-02-28T21:26:56.870Z,100462.06
2023-02-28T21:29:23.989Z,100470.78
2023-02-28T21:31:52.379Z,100466.38
2023-02-28T21:34:19.220Z,100470.81
2023-02-28T21:36:45.999Z,100474.41
2023-02-28T21:39:23.276Z,100474.59
2023-02-28T21:41:49.861Z,100474.59
2023-02-28T21:44:19.751Z,100477.22
2023-02-28T21:46:58.897Z,100478.16
2023-02-28T21:49:25.382Z,100482.53
2023-02-28T21:51:52.892Z,100477.34
2023-02-28T21:54:19.786Z,100477.22
2023-02-28T21:56:46.297Z,100479.97
2023-02-28T21:59:12.751Z,100482.66
2023-02-28T22:01:41.449Z,100485.28
2023-02-28T22:04:10.337Z,100487.09
2023-02-28T22:06:41.519Z,100487.94
2023-02-28T22:09:09.836Z,100494.94
2023-02-28T22:11:37.714Z,100490.47
2023-02-28T22:14:04.531Z,100490.66
2023-02-28T22:16:44.215Z,100492.44
2023-02-28T22:19:16.360Z,100487.31
2023-02-28T22:21:42.969Z,100490.00
2023-02-28T22:24:10.403Z,100492.59
2023-02-28T22:26:37.998Z,100492.59
2023-02-28T22:29:04.546Z,100492.53
2023-02-28T22:31:33.780Z,100494.25
2023-02-28T22:34:03.088Z,100489.91
2023-02-28T22:36:30.288Z,100486.44
2023-02-28T22:38:58.374Z,100483.88
2023-02-28T22:41:26.496Z,100482.22
2023-02-28T22:43:55.458Z,100484.88
2023-02-28T22:46:24.290Z,100486.69
2023-02-28T22:48:51.922Z,100481.47
2023-02-28T22:51:21.588Z,100474.44
2023-02-28T22:53:51.092Z,100472.66
2023-02-28T22:56:20.028Z,100476.03
2023-02-28T22:58:53.317Z,100469.72
2023-02-28T23:01:22.379Z,100471.34
2023-02-28T23:03:49.362Z,100474.81
2023-02-28T23:06:21.042Z,100465.88
2023-02-28T23:08:48.548Z,100460.59
2023-02-28T23:11:21.461Z,100459.72
2023-02-28T23:13:58.571Z,100457.16
2023-02-28T23:16:30.901Z,100456.47
2023-02-28T23:18:59.715Z,100471.38
2023-02-28T23:21:26.771Z,100463.72
2023-02-28T23:23:54.690Z,100467.31
2023-02-28T23:26:21.169Z,100469.09
2023-02-28T23:28:47.715Z,100475.28
2023-02-28T23:31:14.155Z,100478.81
2023-02-28T23:33:41.166Z,100472.72
2023-02-28T23:36:12.685Z,100468.34
2023-02-28T23:38:40.448Z,100472.81
2023-02-28T23:41:11.475Z,100476.44
2023-02-28T23:43:38.258Z,100472.06
2023-02-28T23:46:05.160Z,100472.22
2023-02-28T23:48:31.851Z,100473.91
2023-02-28T23:51:04.117Z,100467.78
2023-02-28T23:53:34.167Z,100466.06
2023-02-28T23:56:01.198Z,100468.66
2023-02-28T23:58:32.039Z,100475.72
